Time;durP1;ratioP1;P1;durP2;ratioP2;P2;SDS_P1;SDS_P2;PMS_P1;PMS_P2;Temp;Humidity;BMP_temperature;BMP_pressure;BME280_temperature;BME280_humidity;BME280_pressure;Samples;Min_cycle;Max_cycle;Signal;HPM_P1;HPM_P2
2021/01/24 00:01:08;;;;;;;44.13;26.98;;;2.50;99.90;;;;;;4128381;28;20069;-78
2021/01/24 00:03:09;;;;;;;42.90;24.05;;;2.70;99.90;;;;;;4111826;28;20038;-78
2021/01/24 00:05:10;;;;;;;33.15;22.13;;;2.70;99.90;;;;;;4091946;28;20147;-77
2021/01/24 00:07:10;;;;;;;30.27;19.48;;;2.70;99.90;;;;;;4112462;28;20382;-77
2021/01/24 00:09:11;;;;;;;28.20;18.55;;;2.80;99.90;;;;;;4113948;28;20023;-77
2021/01/24 00:11:11;;;;;;;33.33;18.17;;;2.80;99.90;;;;;;4112463;28;20078;-77
2021/01/24 00:13:12;;;;;;;31.85;17.55;;;2.90;99.90;;;;;;4112389;28;20027;-77
2021/01/24 00:15:13;;;;;;;28.75;17.05;;;2.80;99.90;;;;;;4111979;28;20046;-78
2021/01/24 00:17:13;;;;;;;22.40;16.10;;;2.70;99.90;;;;;;4113738;28;20074;-78
2021/01/24 00:19:14;;;;;;;26.55;15.48;;;2.70;99.90;;;;;;4113695;28;20030;-77
2021/01/24 00:21:14;;;;;;;21.35;13.30;;;2.70;99.90;;;;;;4113435;28;20023;-77
2021/01/24 00:23:15;;;;;;;18.40;12.82;;;2.70;99.90;;;;;;4113783;28;20027;-77
2021/01/24 00:25:17;;;;;;;16.13;11.38;;;2.60;99.90;;;;;;4112103;28;20038;-77
2021/01/24 00:27:18;;;;;;;17.02;10.73;;;2.60;99.90;;;;;;4111998;28;20069;-77
2021/01/24 00:29:18;;;;;;;15.18;10.77;;;2.60;99.90;;;;;;4113355;28;20027;-77
2021/01/24 00:31:19;;;;;;;18.35;9.65;;;2.60;99.90;;;;;;4113131;28;20030;-77
2021/01/24 00:33:20;;;;;;;14.73;8.88;;;2.60;99.90;;;;;;4113185;28;20385;-78
2021/01/24 00:35:20;;;;;;;12.18;8.52;;;2.60;99.90;;;;;;4112239;28;20031;-78
2021/01/24 00:37:21;;;;;;;17.13;9.18;;;2.70;99.90;;;;;;4111959;28;20474;-77
2021/01/24 00:39:21;;;;;;;19.10;8.40;;;2.60;99.90;;;;;;4113177;28;20035;-77
2021/01/24 00:41:22;;;;;;;15.85;7.90;;;2.70;99.90;;;;;;4113604;28;20367;-77
2021/01/24 00:43:23;;;;;;;11.55;8.32;;;2.80;99.90;;;;;;4113247;28;20038;-78
2021/01/24 00:45:23;;;;;;;11.60;8.88;;;2.90;99.90;;;;;;4113427;28;20031;-77
2021/01/24 00:47:24;;;;;;;12.90;8.95;;;2.80;99.90;;;;;;4113215;28;20054;-77
2021/01/24 00:49:25;;;;;;;12.93;9.57;;;2.70;99.90;;;;;;4112970;28;20146;-77
2021/01/24 00:51:25;;;;;;;16.27;9.68;;;2.70;99.90;;;;;;4111913;28;20038;-77
2021/01/24 00:53:26;;;;;;;12.63;8.05;;;2.60;99.90;;;;;;4112011;28;20043;-79
2021/01/24 00:55:27;;;;;;;16.88;9.85;;;2.60;99.90;;;;;;4113125;28;20130;-77
2021/01/24 00:57:28;;;;;;;11.48;8.50;;;2.60;99.90;;;;;;4113204;28;20034;-77
2021/01/24 00:59:28;;;;;;;14.80;8.85;;;2.60;99.90;;;;;;4113344;28;20487;-77
2021/01/24 01:01:29;;;;;;;15.00;9.98;;;2.60;99.90;;;;;;4112642;28;20023;-78
2021/01/24 01:03:29;;;;;;;11.25;8.57;;;2.60;99.90;;;;;;4113389;28;20091;-78
2021/01/24 01:05:30;;;;;;;12.05;9.02;;;2.50;99.90;;;;;;4113358;28;20027;-78
2021/01/24 01:07:31;;;;;;;19.80;9.55;;;2.50;99.90;;;;;;4111961;28;20035;-78
2021/01/24 01:09:31;;;;;;;11.30;9.07;;;2.60;99.90;;;;;;4112929;28;20038;-77
2021/01/24 01:11:32;;;;;;;13.13;8.45;;;2.60;99.90;;;;;;4110701;28;20031;-77
2021/01/24 01:13:32;;;;;;;14.50;8.60;;;2.60;99.90;;;;;;4111092;28;20522;-77
2021/01/24 01:15:34;;;;;;;15.13;9.05;;;2.60;99.90;;;;;;4111710;28;20034;-77
2021/01/24 01:17:34;;;;;;;14.32;9.05;;;2.50;99.90;;;;;;4112048;28;20062;-77
2021/01/24 01:19:35;;;;;;;15.32;8.98;;;2.50;99.90;;;;;;4111516;28;20387;-77
2021/01/24 01:21:36;;;;;;;16.77;10.00;;;2.50;99.90;;;;;;4110632;28;20034;-77
2021/01/24 01:23:36;;;;;;;17.60;10.25;;;2.40;99.90;;;;;;4111548;28;20031;-77
2021/01/24 01:25:37;;;;;;;15.80;10.57;;;2.40;99.90;;;;;;4110450;28;20364;-77
2021/01/24 01:27:38;;;;;;;16.85;10.68;;;2.40;99.90;;;;;;4110227;28;20089;-77
2021/01/24 01:29:39;;;;;;;15.93;9.48;;;2.40;99.90;;;;;;4110091;28;20051;-77
2021/01/24 01:31:39;;;;;;;20.10;10.55;;;2.50;99.90;;;;;;4111767;28;20085;-78
2021/01/24 01:33:40;;;;;;;20.67;10.68;;;2.50;99.90;;;;;;4111693;28;20043;-77
2021/01/24 01:35:40;;;;;;;19.15;10.88;;;2.60;99.90;;;;;;4110405;28;20404;-77
2021/01/24 01:37:41;;;;;;;19.92;10.73;;;2.60;99.90;;;;;;4111446;28;20023;-77
2021/01/24 01:39:44;;;;;;;14.85;10.48;;;2.70;99.90;;;;;;4109748;28;20031;-77
2021/01/24 01:41:45;;;;;;;;;;;2.70;99.90;;;;;;4113219;28;20027;-76
2021/01/24 01:43:45;;;;;;;18.38;10.98;;;2.70;99.90;;;;;;4115287;28;19953;-77
2021/01/24 01:45:46;;;;;;;19.25;11.15;;;2.70;99.90;;;;;;4116156;28;20029;-77
2021/01/24 01:47:47;;;;;;;18.92;12.15;;;2.70;99.90;;;;;;4115622;28;20026;-78
2021/01/24 01:49:50;;;;;;;21.95;11.48;;;2.70;99.90;;;;;;4115922;28;20098;-77
2021/01/24 01:51:50;;;;;;;20.30;11.88;;;2.70;99.90;;;;;;4115836;28;20026;-77
2021/01/24 01:53:53;;;;;;;21.50;12.70;;;2.60;99.90;;;;;;4115705;28;20101;-77
2021/01/24 01:55:54;;;;;;;18.58;11.93;;;2.60;99.90;;;;;;4114575;28;20517;-77
2021/01/24 01:57:55;;;;;;;20.63;13.20;;;2.50;99.90;;;;;;4115926;28;20019;-77
2021/01/24 01:59:56;;;;;;;21.95;11.75;;;2.40;99.90;;;;;;4115564;28;20035;-77
2021/01/24 02:02:11;;;;;;;25.08;13.13;;;2.40;99.90;;;;;;4115711;28;20125;-77
2021/01/24 02:04:23;;;;;;;26.88;12.82;;;2.60;99.90;;;;;;4112420;28;20023;-77
2021/01/24 02:06:32;;;;;;;20.83;11.30;;;2.60;99.90;;;;;;4105815;28;20086;-77
2021/01/24 02:08:50;;;;;;;27.38;14.23;;;2.50;99.90;;;;;;4094630;28;20081;-78
2021/01/24 02:11:06;;;;;;;21.58;12.38;;;2.50;99.90;;;;;;4107487;28;20051;-77
2021/01/24 02:13:16;;;;;;;20.15;13.20;;;2.50;99.90;;;;;;4121410;28;20038;-77
2021/01/24 02:15:19;;;;;;;20.10;12.60;;;2.50;99.90;;;;;;4125148;28;20034;-78
2021/01/24 02:17:20;;;;;;;21.38;13.43;;;2.50;99.90;;;;;;4124959;28;20631;-77
2021/01/24 02:19:37;;;;;;;27.02;13.40;;;2.40;99.90;;;;;;4139700;28;20096;-77
2021/01/24 02:21:42;;;;;;;19.88;12.32;;;2.40;99.90;;;;;;4121851;28;20101;-77
2021/01/24 02:23:44;;;;;;;24.75;14.05;;;2.30;99.90;;;;;;4122435;28;20545;-77
2021/01/24 02:26:01;;;;;;;23.17;14.05;;;2.30;99.90;;;;;;4122778;28;20022;-77
2021/01/24 02:28:10;;;;;;;28.30;14.93;;;2.30;99.90;;;;;;4123633;28;20146;-77
2021/01/24 02:30:24;;;;;;;22.55;14.30;;;2.40;99.90;;;;;;4144997;28;20026;-77
2021/01/24 02:32:27;;;;;;;27.20;14.00;;;2.40;99.90;;;;;;4145244;28;20117;-77
2021/01/24 02:34:32;;;;;;;27.58;14.80;;;2.40;99.90;;;;;;4130303;28;20556;-77
2021/01/24 02:36:34;;;;;;;30.02;15.05;;;2.50;99.90;;;;;;4130128;28;20092;-77
2021/01/24 02:38:38;;;;;;;28.73;14.73;;;2.50;99.90;;;;;;4131436;28;20026;-77
2021/01/24 02:40:40;;;;;;;26.83;15.85;;;2.40;99.90;;;;;;4162113;28;20578;-77
2021/01/24 02:42:42;;;;;;;28.67;14.98;;;2.40;99.90;;;;;;4131397;28;20041;-77
2021/01/24 02:44:43;;;;;;;26.17;15.10;;;2.40;99.90;;;;;;4118685;28;20110;-77
2021/01/24 02:46:44;;;;;;;22.83;14.68;;;2.30;99.90;;;;;;4130903;28;20030;-77
2021/01/24 02:48:46;;;;;;;27.50;17.25;;;2.40;99.90;;;;;;4129624;28;20026;-77
2021/01/24 02:50:48;;;;;;;23.45;14.57;;;2.40;99.90;;;;;;4129779;28;20537;-77
2021/01/24 02:52:49;;;;;;;24.35;15.65;;;2.40;99.90;;;;;;4130690;28;20034;-77
2021/01/24 02:54:50;;;;;;;25.15;15.70;;;2.40;99.90;;;;;;4130889;28;20088;-77
2021/01/24 02:56:51;;;;;;;26.40;15.27;;;2.50;99.90;;;;;;4131028;28;20683;-77
2021/01/24 02:58:52;;;;;;;26.13;15.15;;;2.50;99.90;;;;;;4131053;28;20069;-77
2021/01/24 03:00:53;;;;;;;30.42;16.05;;;2.40;99.90;;;;;;4145874;28;20033;-77
2021/01/24 03:02:55;;;;;;;26.23;15.25;;;2.30;99.90;;;;;;4130721;28;20026;-77
2021/01/24 03:04:55;;;;;;;25.50;14.52;;;2.50;99.90;;;;;;4130782;28;20026;-77
2021/01/24 03:06:56;;;;;;;24.17;15.50;;;2.50;99.90;;;;;;4130965;28;20445;-77
2021/01/24 03:08:57;;;;;;;26.33;15.90;;;2.50;99.90;;;;;;4129501;28;20046;-77
2021/01/24 03:10:59;;;;;;;23.40;14.45;;;2.40;99.90;;;;;;4130749;28;20034;-77
2021/01/24 03:13:09;;;;;;;25.95;15.63;;;2.30;99.90;;;;;;4145653;28;20029;-77
2021/01/24 03:15:11;;;;;;;28.02;16.27;;;2.30;99.90;;;;;;4130106;28;20030;-77
2021/01/24 03:17:15;;;;;;;22.02;14.43;;;2.30;99.90;;;;;;4129192;28;20105;-77
2021/01/24 03:19:21;;;;;;;28.15;16.25;;;2.30;99.90;;;;;;4130668;28;20521;-77
2021/01/24 03:21:23;;;;;;;27.00;15.73;;;2.30;99.90;;;;;;4130499;28;20112;-77
2021/01/24 03:23:25;;;;;;;24.90;15.65;;;2.40;99.90;;;;;;4130777;28;20113;-77
2021/01/24 03:25:26;;;;;;;28.92;15.88;;;2.40;99.90;;;;;;4129732;28;20050;-77
2021/01/24 03:27:27;;;;;;;24.85;15.23;;;2.30;99.90;;;;;;4118136;28;20056;-77
2021/01/24 03:29:27;;;;;;;27.77;16.67;;;2.30;99.90;;;;;;4128956;28;20069;-77
2021/01/24 03:31:31;;;;;;;31.90;15.00;;;2.40;99.90;;;;;;4129078;28;20030;-77
2021/01/24 03:33:33;;;;;;;27.48;15.85;;;2.30;99.90;;;;;;4121538;28;20558;-77
2021/01/24 03:35:34;;;;;;;22.92;14.68;;;2.20;99.90;;;;;;4127085;28;20585;-77
2021/01/24 03:37:35;;;;;;;27.50;14.55;;;2.20;99.90;;;;;;4130449;28;20027;-77
2021/01/24 03:39:35;;;;;;;24.48;15.55;;;2.20;99.90;;;;;;4130280;28;20116;-77
2021/01/24 03:41:36;;;;;;;28.05;15.60;;;2.20;99.90;;;;;;4130274;28;20026;-77
2021/01/24 03:43:36;;;;;;;24.00;15.20;;;2.30;99.90;;;;;;4130394;28;20085;-79
2021/01/24 03:45:37;;;;;;;23.98;15.27;;;2.30;99.90;;;;;;4129976;28;20039;-76
2021/01/24 03:47:38;;;;;;;25.15;14.75;;;2.20;99.90;;;;;;4130100;28;20042;-77
2021/01/24 03:49:39;;;;;;;23.77;13.57;;;2.20;99.90;;;;;;4130064;28;20039;-77
2021/01/24 03:51:40;;;;;;;31.92;15.02;;;2.20;99.90;;;;;;4130029;28;20061;-77
2021/01/24 03:53:40;;;;;;;29.23;15.82;;;2.20;99.90;;;;;;4130167;28;20367;-77
2021/01/24 03:55:41;;;;;;;20.92;13.77;;;2.10;99.90;;;;;;4130118;28;20029;-78
2021/01/24 03:57:41;;;;;;;33.83;15.65;;;2.10;99.90;;;;;;4129972;28;20030;-77
2021/01/24 03:59:42;;;;;;;28.95;15.82;;;2.10;99.90;;;;;;4129909;28;20022;-78
2021/01/24 04:01:43;;;;;;;27.75;15.10;;;2.10;99.90;;;;;;4125288;28;20031;-78
2021/01/24 04:03:43;;;;;;;24.50;15.18;;;2.10;99.90;;;;;;4121049;28;20050;-77
2021/01/24 04:05:44;;;;;;;25.60;13.77;;;2.20;99.90;;;;;;4119645;28;20122;-78
2021/01/24 04:07:45;;;;;;;23.20;14.23;;;2.20;99.90;;;;;;4112490;28;20066;-78
2021/01/24 04:09:45;;;;;;;23.73;15.65;;;2.30;99.90;;;;;;4116108;28;20031;-78
2021/01/24 04:11:46;;;;;;;23.00;13.95;;;2.20;99.90;;;;;;4118349;28;20038;-78
2021/01/24 04:13:47;;;;;;;27.73;14.07;;;2.10;99.90;;;;;;4115061;28;20049;-77
2021/01/24 04:15:47;;;;;;;25.98;14.30;;;2.10;99.90;;;;;;4116304;28;20026;-77
2021/01/24 04:17:48;;;;;;;27.83;16.15;;;2.10;99.90;;;;;;4116398;28;20085;-77
2021/01/24 04:19:49;;;;;;;25.50;15.45;;;2.10;99.90;;;;;;4116507;28;20030;-77
2021/01/24 04:21:49;;;;;;;23.40;14.60;;;2.00;99.90;;;;;;4117270;28;20019;-77
2021/01/24 04:23:50;;;;;;;27.27;14.75;;;2.10;99.90;;;;;;4116594;28;20049;-77
2021/01/24 04:25:51;;;;;;;23.50;13.73;;;2.10;99.90;;;;;;4116183;28;20405;-77
2021/01/24 04:27:51;;;;;;;26.42;14.68;;;2.10;99.90;;;;;;4116406;28;20034;-77
2021/01/24 04:29:52;;;;;;;29.98;17.58;;;2.00;99.90;;;;;;4116216;28;20114;-77
2021/01/24 04:31:52;;;;;;;23.60;13.52;;;2.10;99.90;;;;;;4117174;28;20030;-77
2021/01/24 04:33:53;;;;;;;23.70;13.10;;;2.10;99.90;;;;;;4117729;28;20030;-77
2021/01/24 04:35:54;;;;;;;24.40;13.68;;;2.10;99.90;;;;;;4116046;28;20106;-77
2021/01/24 04:37:54;;;;;;;29.02;13.95;;;2.10;99.90;;;;;;4116279;28;20089;-78
2021/01/24 04:39:55;;;;;;;21.67;13.15;;;2.10;99.90;;;;;;4130926;28;20022;-78
2021/01/24 04:41:56;;;;;;;22.23;13.85;;;2.00;99.90;;;;;;4114771;28;20029;-78
2021/01/24 04:43:57;;;;;;;26.70;13.10;;;2.10;99.90;;;;;;4118328;28;20030;-77
2021/01/24 04:45:59;;;;;;;23.58;12.95;;;2.10;99.90;;;;;;4116082;28;20026;-78
2021/01/24 04:47:59;;;;;;;26.45;14.63;;;2.00;99.90;;;;;;4116064;28;20035;-78
2021/01/24 04:50:01;;;;;;;21.67;12.55;;;2.00;99.90;;;;;;4116050;28;20101;-78
2021/01/24 04:52:03;;;;;;;21.52;11.93;;;2.00;99.90;;;;;;4114341;28;20170;-78
2021/01/24 04:54:04;;;;;;;20.17;11.50;;;2.10;99.90;;;;;;4125599;28;20032;-77
2021/01/24 04:56:05;;;;;;;18.58;11.20;;;2.00;99.90;;;;;;4144158;28;20026;-78
2021/01/24 04:58:06;;;;;;;25.33;13.35;;;2.20;99.90;;;;;;4129311;28;20085;-78
2021/01/24 05:00:08;;;;;;;17.20;9.75;;;2.10;99.90;;;;;;4129441;28;20026;-78
2021/01/24 05:02:09;;;;;;;21.05;11.65;;;2.30;99.90;;;;;;4128472;28;20023;-78
2021/01/24 05:04:10;;;;;;;19.73;12.27;;;2.30;99.90;;;;;;4126656;28;20157;-78
2021/01/24 05:06:11;;;;;;;21.30;12.52;;;2.30;99.90;;;;;;4128386;28;20049;-78
2021/01/24 05:08:11;;;;;;;19.80;11.13;;;2.20;99.90;;;;;;4127566;28;20486;-78
2021/01/24 05:10:15;;;;;;;19.70;11.63;;;2.30;99.90;;;;;;4126347;28;20482;-78
2021/01/24 05:12:19;;;;;;;18.05;11.73;;;2.30;99.90;;;;;;4128161;28;20498;-78
2021/01/24 05:14:23;;;;;;;17.17;11.48;;;2.20;99.90;;;;;;4142533;28;20408;-78
2021/01/24 05:16:24;;;;;;;19.73;12.05;;;2.30;99.90;;;;;;4128492;28;20026;-77
2021/01/24 05:18:25;;;;;;;17.60;10.52;;;2.20;99.90;;;;;;4131177;28;20081;-78
2021/01/24 05:20:27;;;;;;;19.15;10.35;;;2.30;99.90;;;;;;4146101;28;20342;-78
2021/01/24 05:22:28;;;;;;;17.90;10.45;;;2.30;99.90;;;;;;4129767;28;20030;-78
2021/01/24 05:24:30;;;;;;;20.48;11.20;;;2.30;99.90;;;;;;4129793;28;20030;-78
2021/01/24 05:26:31;;;;;;;24.10;12.60;;;2.20;99.90;;;;;;4131146;28;20026;-78
2021/01/24 05:28:31;;;;;;;17.98;9.75;;;2.20;99.90;;;;;;4130668;28;20403;-77
2021/01/24 05:30:32;;;;;;;17.85;10.98;;;2.20;99.90;;;;;;4130915;28;20085;-78
2021/01/24 05:32:43;;;;;;;20.88;11.98;;;2.20;99.90;;;;;;4146068;28;20386;-78
2021/01/24 05:34:48;;;;;;;18.30;10.63;;;2.20;99.90;;;;;;4126453;28;20088;-78
2021/01/24 05:36:49;;;;;;;21.27;11.27;;;2.30;99.90;;;;;;4131000;28;20058;-78
2021/01/24 05:38:53;;;;;;;18.38;10.02;;;2.20;99.90;;;;;;4130719;28;20030;-78
2021/01/24 05:41:01;;;;;;;20.23;11.20;;;2.30;99.90;;;;;;4132411;28;20027;-78
2021/01/24 05:43:02;;;;;;;22.00;11.27;;;2.30;99.90;;;;;;4131739;28;20034;-78
2021/01/24 05:45:14;;;;;;;22.55;11.43;;;2.20;99.90;;;;;;4146940;28;20478;-78
2021/01/24 05:47:14;;;;;;;18.42;10.05;;;2.20;99.90;;;;;;4129410;28;20046;-77
2021/01/24 05:49:29;;;;;;;16.85;10.65;;;2.20;99.90;;;;;;4145088;28;20054;-78
2021/01/24 05:51:29;;;;;;;24.67;11.77;;;2.20;99.90;;;;;;4130560;28;20034;-78
2021/01/24 05:53:37;;;;;;;17.02;10.35;;;2.10;99.90;;;;;;4162080;28;20027;-78
2021/01/24 05:55:38;;;;;;;19.25;11.57;;;2.00;99.90;;;;;;4146830;28;20200;-78
2021/01/24 05:57:40;;;;;;;20.67;11.15;;;1.90;99.90;;;;;;4131039;28;20022;-78
2021/01/24 05:59:58;;;;;;;24.83;11.95;;;2.00;99.90;;;;;;4130502;28;20027;-78
2021/01/24 06:01:59;;;;;;;20.33;11.77;;;2.00;99.90;;;;;;4130364;28;20073;-78
2021/01/24 06:04:00;;;;;;;24.13;12.68;;;1.90;99.90;;;;;;4146460;28;20033;-78
2021/01/24 06:06:01;;;;;;;18.42;11.27;;;1.90;99.90;;;;;;4128602;28;20381;-78
2021/01/24 06:08:01;;;;;;;18.35;10.80;;;2.00;99.90;;;;;;4115388;28;20126;-78
2021/01/24 06:10:02;;;;;;;16.98;10.60;;;1.90;99.90;;;;;;4141669;28;20099;-78
2021/01/24 06:12:06;;;;;;;21.42;11.10;;;1.90;99.90;;;;;;4126794;28;20037;-78
2021/01/24 06:14:08;;;;;;;17.83;11.85;;;1.90;99.90;;;;;;4141826;28;20036;-77
2021/01/24 06:16:13;;;;;;;19.88;11.00;;;1.80;99.90;;;;;;4126547;28;20046;-77
2021/01/24 06:18:15;;;;;;;24.50;12.57;;;1.70;99.90;;;;;;4126252;28;20027;-77
2021/01/24 06:20:19;;;;;;;19.52;11.88;;;1.70;99.90;;;;;;4127773;28;20077;-77
2021/01/24 06:22:21;;;;;;;21.13;12.30;;;1.70;99.90;;;;;;4126641;28;20063;-78
2021/01/24 06:24:32;;;;;;;23.08;11.68;;;1.70;99.90;;;;;;4127886;28;20121;-78
2021/01/24 06:26:38;;;;;;;24.30;11.88;;;1.70;99.90;;;;;;4125096;28;20446;-78
2021/01/24 06:28:44;;;;;;;22.55;12.10;;;1.60;99.90;;;;;;4105861;28;20035;-78
2021/01/24 06:30:45;;;;;;;22.73;11.75;;;1.60;99.90;;;;;;4141320;28;20026;-78
2021/01/24 06:32:46;;;;;;;22.58;11.27;;;1.70;99.90;;;;;;4123604;28;20070;-78
2021/01/24 06:34:48;;;;;;;22.63;10.55;;;1.70;99.90;;;;;;4124727;28;20081;-77
2021/01/24 06:37:25;;;;;;;21.90;10.90;;;1.70;99.90;;;;;;4124672;28;20059;-78
2021/01/24 06:39:31;;;;;;;22.92;12.85;;;1.60;99.90;;;;;;4116218;28;20058;-78
2021/01/24 06:41:46;;;;;;;16.42;9.80;;;1.60;99.90;;;;;;4123916;28;20152;-78
2021/01/24 06:43:48;;;;;;;21.25;10.80;;;1.70;99.90;;;;;;4125245;28;20542;-78
2021/01/24 06:45:49;;;;;;;23.25;9.98;;;1.70;99.90;;;;;;4126142;28;20034;-77
2021/01/24 06:47:50;;;;;;;20.35;11.45;;;1.60;99.90;;;;;;4126189;28;20038;-77
2021/01/24 06:49:50;;;;;;;25.25;12.07;;;1.60;99.90;;;;;;4127339;28;20046;-77
2021/01/24 06:51:51;;;;;;;17.58;9.90;;;1.60;99.90;;;;;;4139996;28;20022;-77
2021/01/24 06:53:51;;;;;;;23.10;10.98;;;1.60;99.90;;;;;;4128621;28;20126;-77
2021/01/24 06:56:01;;;;;;;15.80;8.95;;;1.50;99.90;;;;;;4145728;28;20030;-77
2021/01/24 06:58:26;;;;;;;17.92;8.88;;;1.60;99.90;;;;;;4129267;28;20502;-77
2021/01/24 07:00:27;;;;;;;19.60;9.38;;;1.60;99.90;;;;;;4129807;28;20019;-79
2021/01/24 07:02:37;;;;;;;15.43;8.82;;;1.60;99.90;;;;;;4129723;28;20110;-76
2021/01/24 07:04:37;;;;;;;16.33;8.35;;;1.60;99.90;;;;;;4128272;28;20019;-76
2021/01/24 07:06:39;;;;;;;22.25;9.48;;;1.60;99.90;;;;;;4144396;28;20492;-75
2021/01/24 07:08:40;;;;;;;22.63;11.82;;;1.60;99.90;;;;;;4127898;28;20478;-78
2021/01/24 07:10:41;;;;;;;16.80;8.82;;;1.60;99.90;;;;;;4145006;28;20105;-76
2021/01/24 07:12:44;;;;;;;15.60;8.75;;;1.50;99.90;;;;;;4130598;28;20054;-75
2021/01/24 07:14:45;;;;;;;16.30;9.40;;;1.50;99.90;;;;;;4130685;28;20042;-75
2021/01/24 07:16:46;;;;;;;17.95;8.93;;;1.40;99.90;;;;;;4130088;28;20445;-76
2021/01/24 07:18:48;;;;;;;22.45;10.25;;;1.40;99.90;;;;;;4144564;28;20029;-78
2021/01/24 07:20:51;;;;;;;24.77;11.57;;;1.30;99.90;;;;;;4129649;28;20037;-76
2021/01/24 07:22:54;;;;;;;;;;;1.20;99.90;;;;;;4129887;28;20033;-78
2021/01/24 07:24:55;;;;;;;22.35;9.73;;;1.20;99.90;;;;;;4160571;28;20008;-78
2021/01/24 07:26:57;;;;;;;18.98;9.43;;;1.10;99.90;;;;;;4129383;28;20045;-78
2021/01/24 07:28:57;;;;;;;17.35;9.82;;;1.10;99.90;;;;;;4129008;28;20034;-78
2021/01/24 07:31:06;;;;;;;21.70;9.80;;;1.00;99.90;;;;;;4127911;28;20109;-78
2021/01/24 07:33:08;;;;;;;19.05;10.07;;;1.00;99.90;;;;;;4124557;28;20037;-76
2021/01/24 07:35:11;;;;;;;22.33;9.32;;;1.00;99.90;;;;;;4127608;28;20058;-77
2021/01/24 07:37:15;;;;;;;19.85;10.23;;;0.90;99.90;;;;;;4129230;28;20043;-77
2021/01/24 07:39:17;;;;;;;20.30;9.10;;;1.10;99.90;;;;;;4129233;28;20490;-77
2021/01/24 07:41:19;;;;;;;15.30;8.85;;;1.10;99.90;;;;;;4128111;28;20030;-77
2021/01/24 07:43:20;;;;;;;15.60;9.60;;;1.10;99.90;;;;;;4129008;28;20041;-77
2021/01/24 07:45:21;;;;;;;17.27;8.93;;;1.10;99.90;;;;;;4129951;28;20022;-78
2021/01/24 07:47:21;;;;;;;16.67;8.77;;;1.10;99.90;;;;;;4129595;28;20026;-78
2021/01/24 07:49:23;;;;;;;8.88;6.20;;;1.00;99.90;;;;;;4127705;28;20038;-78
2021/01/24 07:51:24;;;;;;;12.90;7.60;;;1.10;99.90;;;;;;4127391;28;20178;-78
2021/01/24 07:53:25;;;;;;;13.20;7.07;;;1.10;99.90;;;;;;4129796;28;20258;-78
2021/01/24 07:55:26;;;;;;;14.10;6.20;;;1.10;99.90;;;;;;4129738;28;20030;-76
2021/01/24 07:57:27;;;;;;;13.27;6.90;;;1.20;99.90;;;;;;4128958;28;20050;-76
2021/01/24 07:59:28;;;;;;;11.93;7.53;;;1.20;99.90;;;;;;4128975;28;20027;-77
2021/01/24 08:01:29;;;;;;;11.05;7.13;;;1.20;99.90;;;;;;4128362;28;20039;-77
2021/01/24 08:03:30;;;;;;;12.13;7.72;;;1.10;99.90;;;;;;4126766;28;20037;-77
2021/01/24 08:05:33;;;;;;;16.95;7.15;;;1.10;99.90;;;;;;4127620;28;20034;-77
2021/01/24 08:07:33;;;;;;;14.10;7.30;;;1.00;99.90;;;;;;4117990;28;20179;-77
2021/01/24 08:09:35;;;;;;;13.18;7.68;;;1.00;99.90;;;;;;4113842;28;20027;-77
2021/01/24 08:11:36;;;;;;;12.30;7.53;;;1.00;99.90;;;;;;4118877;28;20029;-77
2021/01/24 08:13:39;;;;;;;14.52;7.60;;;0.90;99.90;;;;;;4116222;28;20019;-77
2021/01/24 08:15:39;;;;;;;12.73;7.33;;;0.90;99.90;;;;;;4131832;28;20033;-77
2021/01/24 08:17:40;;;;;;;20.85;9.45;;;1.00;99.90;;;;;;4115354;28;20035;-77
2021/01/24 08:19:43;;;;;;;19.85;10.80;;;0.90;99.90;;;;;;4115905;28;20019;-77
2021/01/24 08:21:44;;;;;;;14.88;8.95;;;1.00;99.90;;;;;;4117549;28;20478;-77
2021/01/24 08:23:45;;;;;;;12.90;7.55;;;0.90;99.90;;;;;;4117521;28;20041;-77
2021/01/24 08:25:46;;;;;;;13.60;7.60;;;1.00;99.90;;;;;;4115808;28;20030;-77
2021/01/24 08:27:48;;;;;;;10.88;7.15;;;0.90;99.90;;;;;;4115679;28;20034;-77
2021/01/24 08:29:48;;;;;;;12.73;8.20;;;0.80;99.90;;;;;;4115658;28;20031;-77
2021/01/24 08:31:49;;;;;;;11.63;7.15;;;0.80;99.90;;;;;;4115831;28;20031;-77
2021/01/24 08:33:52;;;;;;;12.05;7.22;;;0.80;99.90;;;;;;4117441;28;20036;-78
2021/01/24 08:35:53;;;;;;;12.93;7.82;;;0.80;99.90;;;;;;4129452;28;20492;-76
2021/01/24 08:37:53;;;;;;;12.02;7.60;;;0.80;99.90;;;;;;4115456;28;20027;-77
2021/01/24 08:39:54;;;;;;;11.30;7.68;;;0.70;99.90;;;;;;4115936;28;20019;-76
2021/01/24 08:41:56;;;;;;;14.27;7.75;;;0.70;99.90;;;;;;4113845;28;20023;-77
2021/01/24 08:44:10;;;;;;;11.65;8.30;;;0.70;99.90;;;;;;4116225;28;20117;-77
2021/01/24 08:46:26;;;;;;;11.10;7.70;;;0.70;99.90;;;;;;4115152;28;20129;-75
2021/01/24 08:48:27;;;;;;;11.55;6.97;;;0.70;99.90;;;;;;4113807;28;20039;-75
2021/01/24 08:50:39;;;;;;;6.93;5.72;;;0.80;99.90;;;;;;4115001;28;20054;-77
2021/01/24 08:52:40;;;;;;;7.53;5.63;;;0.80;99.90;;;;;;4128281;28;20053;-77
2021/01/24 08:54:41;;;;;;;9.90;5.30;;;0.80;99.90;;;;;;4128939;28;20041;-77
2021/01/24 08:56:42;;;;;;;6.45;4.95;;;0.80;99.90;;;;;;4143969;28;20715;-77
2021/01/24 08:58:42;;;;;;;8.70;5.63;;;0.90;99.90;;;;;;4129198;28;20528;-78
2021/01/24 09:00:43;;;;;;;14.20;6.50;;;0.90;99.90;;;;;;4128056;28;20455;-78
2021/01/24 09:02:44;;;;;;;12.35;7.30;;;0.90;99.90;;;;;;4129371;28;20037;-78
2021/01/24 09:04:46;;;;;;;8.20;5.25;;;1.10;99.90;;;;;;4128162;28;20528;-77
2021/01/24 09:07:00;;;;;;;10.77;6.18;;;1.10;99.90;;;;;;4129272;28;20046;-77
2021/01/24 09:09:00;;;;;;;;;;;1.10;99.90;;;;;;4127562;28;20148;-77
2021/01/24 09:11:01;;;;;;;14.65;8.10;;;1.20;99.90;;;;;;4122411;28;19914;-76
2021/01/24 09:13:04;;;;;;;11.40;6.50;;;1.30;99.90;;;;;;4096164;28;20499;-77
2021/01/24 09:15:05;;;;;;;16.00;9.20;;;1.40;99.90;;;;;;4105696;28;20031;-77
2021/01/24 09:17:09;;;;;;;16.40;6.90;;;1.60;99.90;;;;;;4111531;28;20023;-76
2021/01/24 09:19:10;;;;;;;9.07;5.50;;;1.70;99.90;;;;;;4111612;28;20061;-78
2021/01/24 09:21:10;;;;;;;7.85;5.05;;;1.90;99.90;;;;;;4115332;28;20039;-78
2021/01/24 09:23:11;;;;;;;8.18;5.38;;;2.00;99.90;;;;;;4114756;28;20022;-77
2021/01/24 09:25:12;;;;;;;8.82;5.53;;;2.10;99.90;;;;;;4112619;28;20041;-78
2021/01/24 09:27:14;;;;;;;7.45;4.70;;;2.20;99.90;;;;;;4117072;28;20434;-76
2021/01/24 09:29:15;;;;;;;7.38;4.97;;;2.30;99.90;;;;;;4126279;28;20118;-77
2021/01/24 09:31:15;;;;;;;10.25;4.43;;;2.40;99.90;;;;;;4119338;28;20089;-78
2021/01/24 09:33:16;;;;;;;8.48;4.40;;;2.60;99.90;;;;;;4114747;28;20486;-78
2021/01/24 09:35:16;;;;;;;6.00;4.05;;;2.80;99.90;;;;;;4113919;28;20398;-78
2021/01/24 09:37:17;;;;;;;7.60;4.18;;;3.00;99.90;;;;;;4115146;28;20062;-78
2021/01/24 09:39:18;;;;;;;8.80;3.88;;;3.20;99.90;;;;;;4114512;28;20035;-78
2021/01/24 09:41:18;;;;;;;4.10;3.65;;;3.30;99.90;;;;;;4114493;28;20060;-78
2021/01/24 09:43:19;;;;;;;7.28;3.92;;;3.30;99.90;;;;;;4128567;28;20034;-78
2021/01/24 09:45:20;;;;;;;4.82;3.30;;;3.30;99.90;;;;;;4113387;28;20110;-79
2021/01/24 09:47:20;;;;;;;6.72;3.55;;;3.20;99.90;;;;;;4117081;28;20035;-78
2021/01/24 09:49:21;;;;;;;7.53;3.88;;;3.20;99.90;;;;;;4114936;28;20129;-79
2021/01/24 09:51:21;;;;;;;8.70;3.45;;;3.20;99.90;;;;;;4114008;28;20565;-79
2021/01/24 09:53:22;;;;;;;4.65;2.90;;;3.20;99.90;;;;;;4112368;28;20035;-78
2021/01/24 09:55:23;;;;;;;5.13;3.28;;;3.20;99.90;;;;;;4113048;28;20041;-79
2021/01/24 09:57:24;;;;;;;5.88;3.00;;;3.20;99.90;;;;;;4127488;28;20125;-79
2021/01/24 09:59:24;;;;;;;7.97;3.35;;;3.30;99.90;;;;;;4114882;28;20034;-79
2021/01/24 10:01:25;;;;;;;7.20;3.17;;;3.30;99.90;;;;;;4127861;28;20038;-79
2021/01/24 10:03:26;;;;;;;5.15;3.13;;;3.40;99.90;;;;;;4109480;28;20387;-79
2021/01/24 10:05:27;;;;;;;3.20;2.90;;;3.40;99.90;;;;;;4112274;28;20086;-79
2021/01/24 10:07:27;;;;;;;5.15;3.33;;;3.30;99.90;;;;;;4106879;28;20046;-79
2021/01/24 10:09:29;;;;;;;7.40;3.65;;;3.40;99.90;;;;;;4112684;28;20039;-78
2021/01/24 10:11:29;;;;;;;4.43;3.72;;;3.40;99.90;;;;;;4115675;28;20042;-78
2021/01/24 10:13:30;;;;;;;4.97;3.55;;;3.40;99.90;;;;;;4113082;28;20159;-77
2021/01/24 10:15:30;;;;;;;5.43;3.10;;;3.40;99.90;;;;;;4114163;28;20042;-77
2021/01/24 10:17:31;;;;;;;7.10;3.65;;;3.40;99.90;;;;;;4113434;28;20051;-77
2021/01/24 10:19:32;;;;;;;7.57;4.07;;;3.40;99.90;;;;;;4101144;28;20066;-78
2021/01/24 10:21:32;;;;;;;6.25;3.92;;;3.50;99.90;;;;;;4096770;28;20038;-78
2021/01/24 10:23:34;;;;;;;7.30;3.53;;;3.50;99.90;;;;;;4097660;28;20114;-78
2021/01/24 10:25:35;;;;;;;5.82;4.22;;;3.60;99.90;;;;;;4097321;28;20062;-77
2021/01/24 10:27:36;;;;;;;8.20;5.03;;;3.60;99.90;;;;;;4098153;28;20032;-78
2021/01/24 10:29:37;;;;;;;8.80;4.50;;;3.70;99.90;;;;;;4097026;28;20036;-78
2021/01/24 10:31:37;;;;;;;5.00;3.80;;;3.90;99.90;;;;;;4098948;28;20031;-78
2021/01/24 10:33:38;;;;;;;6.80;3.40;;;4.30;99.90;;;;;;4103948;28;20547;-77